Etusivu
METAR-TAF:

METAR-TAF

Lentoasemat :

Huron County Memorial Airport

Bad Axe, Michigan, Yhdysvallat

Leveyspiiri: 43-46-51N, Pituuspiiri: 082-59-08W, korkeus merenpinnasta: 233 m

Tämänhetkinen sää

Tämä raportti tehtiin 25 minuuttia sitten, kello 19.58 UTC
Tuuli 8 kn etelästä puuskistuen 14 kn:hen
Lämpötila 25°C
Kosteus 74%
Ilmanpaine 1003 hPa
Näkyvyys: 16.1 km
Hajonneita pilviä 6500 ft:n korkeudessa
Hajanaisia pilviä 7500 ft:n korkeudessa

METAR: KBAX 241958Z AUTO 18008G14KT 10SM BKN065 SCT075 25/20 A2963 RMK AO2 T02530200

Aika: 16:23 (20:23 UTC)


TAF: puuttuu

Säähavainnot ja -ennusteet yli 4000 lentoasemalta (METAR- ja TAF-raportit).

Käytössä olevat sääasemat on merkitty karttaan keltaisilla ja punaisilla pisteillä.

Aseta hiiri pisteen päälle nähdäksesi sääaseman nimen.

Klikkaa sitten nähdäksesi säähavainnot ja -ennusteet.

Kartan vaihtaminen: klikkaa mustalla rastilla varustettuja vihreitä pisteitä, niin voit zoomata sisään; viivalla varustettua vihreää pistettä, niin voit zoomata ulos tai vihreitä nuolia, niin pääset viereisille kartoille.


METAR-TAF: